DAL245 LICC-KJFK
Flight info
| Callsign | DAL245 |
|---|---|
| Flight time | N/A |
| Altitude | 36000 |
| Route | BUDIN5B BUDIN DCT NERAR DCT UNIXO DCT GISPA DCT ROTIR DCT TOBGA DCT DOBIM DCT PIGOS DCT BODRU DCT KOTIT DCT ETREK DCT NOQAS DCT LERGA DCT VALKU/N0471F370 DCT PECNO DCT LMG/N0464F360 DCT MANAK UT183 BAGAD DCT ALUTA/N0466F380 DCT TAKAS/M081F380 DCT SOMAX DCT 51N020W 51N030W 51N040W 50N050W DCT ELSIR/N0465F380 N398B TUSKY DCT PLYMM PARCH4 |
| Aircraft | A332/H-V/N |
Departure
| Time | 2026-05-05 10:03 |
|---|---|
| Airport | Catania-Fontanarossa Airport (LICC) |
Arrival
| Time | N/A |
|---|---|
| Airport | John F. Kennedy International Airport (KJFK) |
| Time | Latitude | Longitude | Altitude | Speed | Heading |
|---|---|---|---|---|---|
| 2026-05-05 09:53 | 37.46953 | 15.06468 | 34 ft | 0 kts | 19° |
| 2026-05-05 09:56 | 37.46951 | 15.06467 | 33 ft | 2 kts | 19° |
| 2026-05-05 09:57 | 37.46861 | 15.06426 | 31 ft | 2 kts | 349° |
| 2026-05-05 09:58 | 37.46851 | 15.06440 | 33 ft | 2 kts | 321° |
| 2026-05-05 09:58 | 37.46838 | 15.06452 | 31 ft | 2 kts | 315° |
| 2026-05-05 09:58 | 37.46831 | 15.06461 | 33 ft | 0 kts | 261° |
| 2026-05-05 09:59 | 37.46823 | 15.06390 | 34 ft | 11 kts | 264° |
| 2026-05-05 09:59 | 37.46814 | 15.06285 | 34 ft | 12 kts | 264° |
| 2026-05-05 10:00 | 37.46804 | 15.06173 | 34 ft | 13 kts | 264° |
| 2026-05-05 10:00 | 37.46794 | 15.06052 | 34 ft | 14 kts | 263° |
| 2026-05-05 10:00 | 37.46782 | 15.05923 | 34 ft | 15 kts | 264° |
| 2026-05-05 10:00 | 37.46771 | 15.05788 | 34 ft | 16 kts | 264° |
| 2026-05-05 10:01 | 37.46759 | 15.05645 | 34 ft | 17 kts | 264° |
| 2026-05-05 10:01 | 37.46747 | 15.05497 | 34 ft | 17 kts | 264° |
| 2026-05-05 10:01 | 37.46736 | 15.05370 | 34 ft | 13 kts | 259° |
| 2026-05-05 10:01 | 37.46683 | 15.05275 | 35 ft | 13 kts | 223° |
| 2026-05-05 10:02 | 37.46628 | 15.05219 | 36 ft | 6 kts | 213° |
| 2026-05-05 10:02 | 37.46580 | 15.05226 | 38 ft | 10 kts | 137° |
| 2026-05-05 10:02 | 37.46567 | 15.05325 | 37 ft | 2 kts | 82° |
| 2026-05-05 10:02 | 37.46592 | 15.05565 | 35 ft | 62 kts | 83° |
| 2026-05-05 10:03 | 37.46661 | 15.06409 | 40 ft | 128 kts | 84° |
| 2026-05-05 10:03 | 37.46770 | 15.07754 | 195 ft | 168 kts | 85° |
| 2026-05-05 10:03 | 37.46869 | 15.09164 | 1006 ft | 159 kts | 86° |
| 2026-05-05 10:03 | 37.46960 | 15.10629 | 1369 ft | 181 kts | 86° |
| 2026-05-05 10:04 | 37.47062 | 15.12304 | 1833 ft | 200 kts | 86° |
| 2026-05-05 10:04 | 37.47170 | 15.14091 | 2464 ft | 207 kts | 85° |
| 2026-05-05 10:04 | 37.47290 | 15.15901 | 3162 ft | 208 kts | 85° |
| 2026-05-05 10:04 | 37.47418 | 15.17750 | 3747 ft | 214 kts | 85° |
| 2026-05-05 10:05 | 37.47555 | 15.19625 | 4403 ft | 215 kts | 85° |
| 2026-05-05 10:05 | 37.47690 | 15.21502 | 4961 ft | 219 kts | 85° |
| 2026-05-05 10:05 | 37.47968 | 15.23421 | 5346 ft | 230 kts | 66° |
| 2026-05-05 10:05 | 37.48821 | 15.25193 | 5769 ft | 247 kts | 56° |
| 2026-05-05 10:06 | 37.49642 | 15.27223 | 6040 ft | 274 kts | 70° |
| 2026-05-05 10:06 | 37.50432 | 15.29457 | 6687 ft | 279 kts | 52° |
| 2026-05-05 10:06 | 37.51885 | 15.31003 | 7611 ft | 275 kts | 26° |
| 2026-05-05 10:06 | 37.53652 | 15.32022 | 8316 ft | 281 kts | 23° |
| 2026-05-05 10:07 | 37.55332 | 15.33226 | 9153 ft | 283 kts | 33° |
| 2026-05-05 10:07 | 37.56919 | 15.34724 | 9943 ft | 286 kts | 33° |
| 2026-05-05 10:07 | 37.58620 | 15.36053 | 10651 ft | 288 kts | 25° |
| 2026-05-05 10:07 | 37.60418 | 15.37230 | 11321 ft | 293 kts | 26° |
| 2026-05-05 10:08 | 37.62153 | 15.38635 | 11993 ft | 299 kts | 33° |
| 2026-05-05 10:08 | 37.63844 | 15.40154 | 12663 ft | 303 kts | 30° |
| 2026-05-05 10:08 | 37.65677 | 15.41529 | 13155 ft | 315 kts | 25° |
| 2026-05-05 10:08 | 37.67678 | 15.42933 | 13206 ft | 344 kts | 27° |
| 2026-05-05 10:09 | 37.69812 | 15.44563 | 13209 ft | 371 kts | 24° |
| 2026-05-05 10:09 | 37.72365 | 15.45412 | 13243 ft | 392 kts | 359° |
| 2026-05-05 10:09 | 37.75038 | 15.44720 | 13961 ft | 392 kts | 337° |
| 2026-05-05 10:09 | 37.77552 | 15.43411 | 14840 ft | 394 kts | 335° |
| 2026-05-05 10:10 | 37.80100 | 15.42109 | 15506 ft | 401 kts | 336° |
| 2026-05-05 10:10 | 37.82728 | 15.40837 | 16340 ft | 404 kts | 336° |
| 2026-05-05 10:10 | 37.85337 | 15.39513 | 17066 ft | 410 kts | 335° |
| 2026-05-05 10:10 | 37.87999 | 15.38132 | 17828 ft | 415 kts | 335° |
| 2026-05-05 10:11 | 37.90712 | 15.36794 | 18563 ft | 420 kts | 336° |
| 2026-05-05 10:11 | 37.93459 | 15.35456 | 19218 ft | 424 kts | 336° |
| 2026-05-05 10:11 | 37.96185 | 15.34062 | 19867 ft | 428 kts | 335° |
| 2026-05-05 10:11 | 37.98962 | 15.32637 | 20520 ft | 433 kts | 336° |
| 2026-05-05 10:12 | 38.01783 | 15.31243 | 21189 ft | 437 kts | 336° |
| 2026-05-05 10:12 | 38.04632 | 15.29829 | 21837 ft | 441 kts | 336° |
| 2026-05-05 10:12 | 38.07502 | 15.28357 | 22494 ft | 446 kts | 335° |
| 2026-05-05 10:12 | 38.10397 | 15.26884 | 23144 ft | 450 kts | 336° |
| 2026-05-05 10:13 | 38.13338 | 15.25429 | 23751 ft | 455 kts | 336° |
| 2026-05-05 10:13 | 38.16294 | 15.23941 | 24335 ft | 458 kts | 335° |
| 2026-05-05 10:13 | 38.19221 | 15.22432 | 24948 ft | 461 kts | 335° |
| 2026-05-05 10:13 | 38.22251 | 15.21026 | 25588 ft | 465 kts | 339° |
| 2026-05-05 10:14 | 38.25282 | 15.19550 | 26331 ft | 466 kts | 334° |
| 2026-05-05 10:14 | 38.28253 | 15.17843 | 27004 ft | 469 kts | 333° |
| 2026-05-05 10:14 | 38.31277 | 15.16200 | 27652 ft | 474 kts | 336° |
| 2026-05-05 10:14 | 38.34359 | 15.14787 | 28264 ft | 478 kts | 338° |
| 2026-05-05 10:15 | 38.37480 | 15.13300 | 28891 ft | 480 kts | 335° |
| 2026-05-05 10:15 | 38.40569 | 15.11600 | 29405 ft | 484 kts | 333° |
| 2026-05-05 10:15 | 38.43676 | 15.09925 | 29863 ft | 486 kts | 335° |
| 2026-05-05 10:15 | 38.46831 | 15.08349 | 29993 ft | 484 kts | 332° |
| 2026-05-05 10:16 | 38.49638 | 15.06057 | 30416 ft | 476 kts | 320° |
| 2026-05-05 10:16 | 38.52233 | 15.03495 | 30641 ft | 475 kts | 320° |
| 2026-05-05 10:16 | 38.57571 | 14.98463 | 30663 ft | 476 kts | 320° |
| 2026-05-05 10:17 | 38.62771 | 14.93274 | 31379 ft | 465 kts | 320° |
| 2026-05-05 10:17 | 38.65320 | 14.90859 | 32326 ft | 459 kts | 320° |
| 2026-05-05 10:17 | 38.67843 | 14.88440 | 33474 ft | 447 kts | 319° |
| 2026-05-05 10:18 | 38.70271 | 14.86018 | 34515 ft | 435 kts | 319° |
| 2026-05-05 10:18 | 38.72668 | 14.83644 | 35043 ft | 438 kts | 319° |
| 2026-05-05 10:18 | 38.75107 | 14.81310 | 35755 ft | 430 kts | 320° |
| 2026-05-05 10:18 | 38.77506 | 14.79000 | 36178 ft | 436 kts | 319° |
| 2026-05-05 10:19 | 38.82360 | 14.74161 | 36112 ft | 451 kts | 320° |
| 2026-05-05 10:19 | 38.87400 | 14.69296 | 36121 ft | 453 kts | 319° |
| 2026-05-05 10:20 | 38.89051 | 14.67644 | 36127 ft | 453 kts | 319° |